Time;durP1;ratioP1;P1;durP2;ratioP2;P2;SDS_P1;SDS_P2;PMS_P1;PMS_P2;Temp;Humidity;BMP_temperature;BMP_pressure;BME280_temperature;BME280_humidity;BME280_pressure;Samples;Min_cycle;Max_cycle;Signal;HPM_P1;HPM_P2
2022/01/29 00:00:15;;;;;;;;;28.50;28.50;16.20;99.90;;;;;;5079038;28;11486;-46
2022/01/29 00:02:47;;;;;;;;;39.25;33.50;16.20;99.90;;;;;;5073918;28;11529;-47
2022/01/29 00:05:18;;;;;;;;;28.00;26.75;16.20;99.90;;;;;;5076626;28;11521;-47
2022/01/29 00:07:49;;;;;;;;;30.25;30.00;16.30;99.90;;;;;;5075769;28;11457;-52
2022/01/29 00:10:20;;;;;;;;;29.00;29.00;16.20;99.90;;;;;;5069983;28;11545;-52
2022/01/29 00:12:51;;;;;;;;;28.25;28.25;16.20;99.90;;;;;;5075528;28;11546;-44
2022/01/29 00:15:22;;;;;;;;;32.25;30.25;16.20;99.90;;;;;;5070368;28;11655;-47
2022/01/29 00:17:53;;;;;;;;;32.25;30.50;16.20;99.90;;;;;;5081482;28;11531;-47
2022/01/29 00:20:25;;;;;;;;;31.50;30.50;16.20;99.90;;;;;;5085392;28;11942;-46
2022/01/29 00:22:56;;;;;;;;;28.50;28.50;16.30;99.90;;;;;;5080051;28;11657;-47
2022/01/29 00:25:27;;;;;;;;;33.25;32.00;16.20;99.90;;;;;;5072808;28;11656;-46
2022/01/29 00:27:59;;;;;;;;;32.25;30.50;16.30;99.90;;;;;;5077335;28;11559;-47
2022/01/29 00:30:36;;;;;;;;;39.00;33.50;16.20;99.90;;;;;;5079179;28;11580;-44
2022/01/29 00:33:08;;;;;;;;;31.50;30.50;16.20;99.90;;;;;;5075182;28;11689;-43
2022/01/29 00:35:39;;;;;;;;;36.00;33.00;16.20;99.90;;;;;;5071879;28;11562;-44
2022/01/29 00:38:10;;;;;;;;;36.00;33.00;16.30;99.90;;;;;;5072205;28;11568;-46
2022/01/29 00:40:40;;;;;;;;;33.25;31.75;16.20;99.90;;;;;;5075058;28;11589;-45
2022/01/29 00:43:10;;;;;;;;;35.00;32.75;16.30;99.90;;;;;;5074285;28;12233;-45
2022/01/29 00:45:41;;;;;;;;;32.75;31.50;16.20;99.90;;;;;;5078814;28;11569;-46
2022/01/29 00:48:12;;;;;;;;;35.00;32.75;16.30;99.90;;;;;;5060971;28;11578;-48
2022/01/29 00:50:43;;;;;;;;;39.25;35.00;16.30;99.90;;;;;;5077622;28;11699;-46
2022/01/29 00:53:13;;;;;;;;;40.75;36.00;16.30;99.90;;;;;;5072800;28;12055;-46
2022/01/29 00:55:44;;;;;;;;;39.50;34.25;16.20;99.90;;;;;;5080232;28;11526;-47
2022/01/29 00:58:16;;;;;;;;;37.50;34.50;16.20;99.90;;;;;;5075400;28;11551;-48
2022/01/29 01:00:48;;;;;;;;;32.25;31.00;16.20;99.90;;;;;;5082169;28;11503;-46
2022/01/29 01:03:18;;;;;;;;;32.25;29.50;16.20;99.90;;;;;;5077508;28;11563;-48
2022/01/29 01:05:52;;;;;;;;;21.50;21.50;16.20;99.90;;;;;;5067583;28;11592;-45
2022/01/29 01:08:24;;;;;;;;;21.50;21.50;16.20;99.90;;;;;;5079394;28;11517;-49
2022/01/29 01:10:54;;;;;;;;;23.00;23.00;16.20;99.90;;;;;;5074877;28;11795;-47
2022/01/29 01:13:25;;;;;;;;;21.25;21.25;16.10;99.90;;;;;;5082938;28;12173;-48
2022/01/29 01:15:55;;;;;;;;;21.50;21.50;16.10;99.90;;;;;;5077135;28;11450;-46
2022/01/29 01:18:26;;;;;;;;;21.00;19.50;16.10;99.90;;;;;;5081761;28;11481;-44
2022/01/29 01:20:57;;;;;;;;;15.00;15.00;16.10;99.90;;;;;;5075861;28;12340;-49
2022/01/29 01:23:27;;;;;;;;;23.75;23.75;16.10;99.90;;;;;;5075019;28;11481;-44
2022/01/29 01:25:58;;;;;;;;;19.50;19.50;16.10;99.90;;;;;;5085192;28;12051;-45
2022/01/29 01:28:29;;;;;;;;;22.50;22.50;16.00;99.90;;;;;;5076816;28;11506;-48
2022/01/29 01:30:59;;;;;;;;;22.00;20.75;16.00;99.90;;;;;;5084326;28;11472;-47
2022/01/29 01:33:29;;;;;;;;;18.00;18.00;16.00;99.90;;;;;;5077691;28;11505;-47
2022/01/29 01:36:03;;;;;;;;;21.00;20.75;16.00;99.90;;;;;;5087441;28;12230;-46
2022/01/29 01:38:49;;;;;;;;;19.50;19.50;15.90;99.90;;;;;;5078206;28;11991;-46
2022/01/29 01:41:26;;;;;;;;;20.25;20.25;15.90;99.90;;;;;;5084462;28;11845;-47
2022/01/29 01:44:03;;;;;;;;;17.50;17.50;15.90;99.90;;;;;;5082894;28;11463;-48
2022/01/29 01:46:33;;;;;;;;;20.25;20.25;15.90;99.90;;;;;;5073423;28;11451;-43
2022/01/29 01:49:04;;;;;;;;;22.50;22.00;15.80;99.90;;;;;;5076797;28;11459;-45
2022/01/29 01:51:37;;;;;;;;;21.00;21.00;15.80;99.90;;;;;;5087950;28;11506;-46
2022/01/29 01:54:08;;;;;;;;;21.75;21.75;15.80;99.90;;;;;;5076201;28;11479;-44
2022/01/29 01:56:38;;;;;;;;;22.75;22.75;15.80;99.90;;;;;;5076208;28;12157;-44
2022/01/29 01:59:08;;;;;;;;;20.25;20.25;15.70;99.90;;;;;;5075899;28;11451;-45
2022/01/29 02:01:39;;;;;;;;;21.00;21.00;15.70;99.90;;;;;;5080936;28;12272;-42
2022/01/29 02:04:09;;;;;;;;;20.25;20.25;15.70;99.90;;;;;;5077975;28;11504;-45
2022/01/29 02:06:41;;;;;;;;;18.50;18.50;15.60;99.90;;;;;;5079499;28;12184;-48
2022/01/29 02:09:14;;;;;;;;;22.25;22.25;15.60;99.90;;;;;;5082607;28;12195;-49
2022/01/29 02:11:56;;;;;;;;;19.75;19.00;15.60;99.90;;;;;;5076447;28;11479;-47
2022/01/29 02:14:33;;;;;;;;;22.50;22.50;15.50;99.90;;;;;;5071232;28;11467;-44
2022/01/29 02:17:05;;;;;;;;;22.25;22.25;15.50;99.90;;;;;;5086425;28;11525;-47
2022/01/29 02:19:37;;;;;;;;;19.50;18.25;15.50;99.90;;;;;;5079561;28;11514;-44
2022/01/29 02:22:08;;;;;;;;;20.00;20.00;15.40;99.90;;;;;;5081558;28;11551;-44
2022/01/29 02:24:38;;;;;;;;;21.00;21.00;15.40;99.90;;;;;;5085065;28;11482;-46
2022/01/29 02:27:09;;;;;;;;;17.50;17.50;15.40;99.90;;;;;;5096743;28;11631;-47
2022/01/29 02:29:38;;;;;;;;;21.75;21.75;15.30;99.90;;;;;;5083847;28;11665;-46
2022/01/29 02:32:09;;;;;;;;;20.00;20.00;15.30;99.90;;;;;;5081356;28;11515;-46
2022/01/29 02:34:43;;;;;;;;;20.50;19.50;15.30;99.90;;;;;;5076694;28;11497;-51
2022/01/29 02:37:14;;;;;;;;;23.00;23.00;15.30;99.90;;;;;;5077023;28;11546;-45
2022/01/29 02:39:46;;;;;;;;;22.00;22.00;15.30;99.90;;;;;;5075056;28;11506;-44
2022/01/29 02:42:17;;;;;;;;;23.75;22.25;15.20;99.90;;;;;;5081284;28;11499;-45
2022/01/29 02:44:48;;;;;;;;;24.25;24.25;15.20;99.90;;;;;;5080260;28;12240;-45
2022/01/29 02:47:31;;;;;;;;;22.25;22.25;15.20;99.90;;;;;;5065970;28;11668;-46
2022/01/29 02:50:05;;;;;;;;;26.25;26.25;15.20;99.90;;;;;;5083099;28;12098;-44
2022/01/29 02:52:36;;;;;;;;;25.50;25.50;15.20;99.90;;;;;;5077977;28;12089;-46
2022/01/29 02:55:07;;;;;;;;;20.75;20.75;15.20;99.90;;;;;;5072470;28;11599;-46
2022/01/29 02:57:39;;;;;;;;;24.50;24.50;15.20;99.90;;;;;;5072986;28;11512;-44
2022/01/29 03:00:10;;;;;;;;;22.00;22.00;15.10;99.90;;;;;;5085561;28;11552;-48
2022/01/29 03:02:42;;;;;;;;;29.75;29.75;15.10;99.90;;;;;;5080972;28;11490;-46
2022/01/29 03:05:12;;;;;;;;;24.00;24.00;15.10;99.90;;;;;;5086176;28;11545;-44
2022/01/29 03:07:43;;;;;;;;;26.75;26.75;15.10;99.90;;;;;;5076236;28;12241;-49
2022/01/29 03:10:15;;;;;;;;;27.25;25.50;15.00;99.90;;;;;;5070364;28;11717;-49
2022/01/29 03:12:46;;;;;;;;;23.50;23.50;15.00;99.90;;;;;;5072848;28;11720;-47
2022/01/29 03:15:16;;;;;;;;;30.25;30.25;15.00;99.90;;;;;;5078199;28;12296;-46
2022/01/29 03:17:48;;;;;;;;;27.25;26.00;15.00;99.90;;;;;;5081193;28;12225;-47
2022/01/29 03:20:20;;;;;;;;;25.75;25.75;14.90;99.90;;;;;;5077557;28;12234;-48
2022/01/29 03:22:51;;;;;;;;;23.00;23.00;14.90;99.90;;;;;;5081184;28;11681;-42
2022/01/29 03:25:22;;;;;;;;;29.50;29.50;14.90;99.90;;;;;;5077032;28;11703;-44
2022/01/29 03:27:53;;;;;;;;;25.75;25.75;14.90;99.90;;;;;;5081240;28;11540;-45
2022/01/29 03:30:23;;;;;;;;;27.00;27.00;14.90;99.90;;;;;;5056497;28;11539;-50
2022/01/29 03:32:55;;;;;;;;;28.25;28.25;14.80;99.90;;;;;;5076210;28;11692;-46
2022/01/29 03:35:26;;;;;;;;;30.75;30.75;14.80;99.90;;;;;;5074516;28;11526;-46
2022/01/29 03:37:56;;;;;;;;;35.50;32.25;14.80;99.90;;;;;;5077757;28;11567;-47
2022/01/29 03:40:28;;;;;;;;;35.50;33.00;14.80;99.90;;;;;;5074472;28;11524;-47
2022/01/29 03:43:08;;;;;;;;;32.75;31.75;14.80;99.90;;;;;;5077394;28;11529;-45
2022/01/29 03:45:38;;;;;;;;;53.00;44.50;14.80;99.90;;;;;;5079963;28;11520;-47
2022/01/29 03:48:09;;;;;;;;;47.75;39.75;14.70;99.90;;;;;;5078273;28;12287;-49
2022/01/29 03:50:39;;;;;;;;;44.75;39.00;14.70;99.90;;;;;;5078112;28;12251;-47
2022/01/29 03:53:09;;;;;;;;;51.50;42.00;14.70;99.90;;;;;;5080071;28;11552;-45
2022/01/29 03:55:40;;;;;;;;;54.25;45.75;14.70;99.90;;;;;;5077984;28;11727;-45
2022/01/29 03:58:11;;;;;;;;;60.75;50.75;14.60;99.90;;;;;;5075568;28;11532;-47
2022/01/29 04:00:41;;;;;;;;;51.50;42.75;14.60;99.90;;;;;;5075192;28;11575;-47
2022/01/29 04:03:12;;;;;;;;;32.50;31.50;14.60;99.90;;;;;;5078030;28;12294;-46
2022/01/29 04:05:44;;;;;;;;;32.75;31.25;14.60;99.90;;;;;;5077017;28;12306;-46
2022/01/29 04:08:17;;;;;;;;;31.50;31.00;14.50;99.90;;;;;;5067886;28;11564;-45
2022/01/29 04:10:51;;;;;;;;;29.25;29.25;14.50;99.90;;;;;;5075643;28;12315;-45
2022/01/29 04:13:25;;;;;;;;;31.00;30.75;14.50;99.90;;;;;;5079391;28;11558;-50
2022/01/29 04:15:55;;;;;;;;;31.00;30.50;14.50;99.90;;;;;;5084314;28;11539;-48
2022/01/29 04:18:26;;;;;;;;;29.75;29.75;14.50;99.90;;;;;;5083082;28;11739;-45
2022/01/29 04:20:56;;;;;;;;;31.00;30.50;14.40;99.90;;;;;;5083521;28;12282;-44
2022/01/29 04:23:27;;;;;;;;;28.00;28.00;14.40;99.90;;;;;;5079242;28;11558;-45
2022/01/29 04:25:59;;;;;;;;;28.25;28.25;14.30;99.90;;;;;;5082262;28;12037;-47
2022/01/29 04:28:36;;;;;;;;;26.50;26.50;14.30;99.90;;;;;;5073740;28;11489;-47
2022/01/29 04:31:14;;;;;;;;;29.75;29.75;14.30;99.90;;;;;;5075880;28;11539;-44
2022/01/29 04:33:45;;;;;;;;;26.50;25.50;14.20;99.90;;;;;;5080128;28;12232;-45
2022/01/29 04:36:16;;;;;;;;;32.75;32.00;14.20;99.90;;;;;;5079129;28;12281;-44
2022/01/29 04:38:47;;;;;;;;;30.50;30.50;14.10;99.90;;;;;;5075501;28;11557;-48
2022/01/29 04:41:21;;;;;;;;;28.00;28.00;14.10;99.90;;;;;;5074667;28;11547;-49
2022/01/29 04:43:52;;;;;;;;;29.25;28.75;14.10;99.90;;;;;;5082854;28;11508;-46
2022/01/29 04:46:24;;;;;;;;;31.75;31.25;14.10;99.90;;;;;;5076289;28;11526;-45
2022/01/29 04:48:55;;;;;;;;;28.75;28.75;14.00;99.90;;;;;;5087638;28;11676;-47
2022/01/29 04:51:25;;;;;;;;;33.75;32.75;14.00;99.90;;;;;;5086749;28;11529;-48
2022/01/29 04:53:56;;;;;;;;;37.75;34.25;14.00;99.90;;;;;;5080704;28;11036;-49
2022/01/29 04:56:26;;;;;;;;;30.00;29.75;14.00;99.90;;;;;;5083682;28;11629;-48
2022/01/29 04:58:57;;;;;;;;;30.75;30.75;13.90;99.90;;;;;;5080439;28;12314;-48
2022/01/29 05:01:28;;;;;;;;;29.50;29.50;13.90;99.90;;;;;;5086888;28;11564;-46
2022/01/29 05:03:59;;;;;;;;;31.75;31.75;13.90;99.90;;;;;;5065781;28;11557;-48
2022/01/29 05:06:31;;;;;;;;;33.50;32.00;13.80;99.90;;;;;;5079601;28;11507;-48
2022/01/29 05:09:03;;;;;;;;;30.50;29.75;13.80;99.90;;;;;;5075627;28;11536;-46
2022/01/29 05:11:35;;;;;;;;;33.25;32.75;13.80;99.90;;;;;;5081399;28;12290;-47
2022/01/29 05:14:09;;;;;;;;;27.50;27.50;13.80;99.90;;;;;;5083454;28;11546;-44
2022/01/29 05:27:59;;;;;;;;;27.25;27.25;13.60;99.90;;;;;;5081803;28;11545;-45
2022/01/29 05:30:28;;;;;;;;;25.75;25.75;13.50;99.90;;;;;;5076876;28;11579;-46
2022/01/29 05:32:59;;;;;;;;;28.75;27.50;13.50;99.90;;;;;;5074766;28;11565;-45
2022/01/29 05:35:29;;;;;;;;;28.75;27.25;13.50;99.90;;;;;;5086831;28;12333;-44
2022/01/29 05:38:00;;;;;;;;;21.50;21.50;13.40;99.90;;;;;;5075378;28;11527;-48
2022/01/29 05:40:29;;;;;;;;;26.00;26.00;13.40;99.90;;;;;;5087379;28;11524;-49
2022/01/29 05:43:00;;;;;;;;;26.75;26.75;13.40;99.90;;;;;;5085666;28;11495;-50
2022/01/29 05:45:31;;;;;;;;;28.75;28.75;13.40;99.90;;;;;;5088683;28;11724;-45
2022/01/29 05:48:01;;;;;;;;;27.25;27.25;13.40;99.90;;;;;;5087301;28;11679;-47
2022/01/29 05:50:32;;;;;;;;;28.50;28.50;13.40;99.90;;;;;;5075068;28;11720;-47
2022/01/29 05:53:03;;;;;;;;;28.75;28.75;13.30;99.90;;;;;;5078364;28;12227;-47
2022/01/29 05:55:34;;;;;;;;;27.00;25.75;13.20;99.90;;;;;;5083810;28;11518;-45
2022/01/29 05:58:03;;;;;;;;;26.50;26.50;13.20;99.90;;;;;;5062973;28;11557;-44
2022/01/29 06:00:33;;;;;;;;;30.00;29.00;13.20;99.90;;;;;;5056052;28;11582;-49
2022/01/29 06:03:09;;;;;;;;;29.25;29.25;13.20;99.90;;;;;;5069138;28;11669;-42
2022/01/29 06:05:39;;;;;;;;;32.75;31.25;13.20;99.90;;;;;;5088854;28;12248;-45
2022/01/29 06:08:11;;;;;;;;;26.75;26.75;13.20;99.90;;;;;;5056503;28;11524;-44
2022/01/29 06:10:43;;;;;;;;;25.50;25.50;13.20;99.90;;;;;;5077224;28;11890;-46
2022/01/29 06:13:15;;;;;;;;;28.25;28.25;13.20;99.90;;;;;;5080566;28;11553;-47
2022/01/29 06:15:49;;;;;;;;;31.25;31.25;13.10;99.90;;;;;;5082402;28;11493;-44
2022/01/29 06:18:25;;;;;;;;;29.25;29.25;13.10;99.90;;;;;;5076423;28;11574;-45
2022/01/29 06:21:03;;;;;;;;;26.50;22.75;13.00;99.90;;;;;;5082703;28;11524;-46
2022/01/29 06:23:34;;;;;;;;;29.25;29.25;12.90;99.90;;;;;;5061698;28;11516;-47
2022/01/29 06:26:09;;;;;;;;;32.00;30.75;12.90;99.90;;;;;;5078562;28;11516;-46
2022/01/29 06:28:41;;;;;;;;;31.75;31.50;12.80;99.90;;;;;;5073874;28;11531;-45
2022/01/29 06:31:13;;;;;;;;;32.25;31.75;12.80;99.90;;;;;;5078514;28;11516;-44
2022/01/29 06:33:43;;;;;;;;;34.75;31.50;12.90;99.90;;;;;;5072510;28;11716;-45
2022/01/29 06:36:13;;;;;;;;;30.25;28.75;12.90;99.90;;;;;;5074950;28;11507;-44
2022/01/29 06:38:46;;;;;;;;;31.50;31.50;12.80;99.90;;;;;;5075675;28;11484;-45
2022/01/29 06:41:17;;;;;;;;;27.50;27.50;12.80;99.90;;;;;;5072639;28;11569;-43
2022/01/29 06:43:49;;;;;;;;;29.50;28.00;12.80;99.90;;;;;;5072215;28;12300;-45
2022/01/29 06:46:19;;;;;;;;;27.25;27.25;12.70;99.90;;;;;;5074226;28;11573;-47
2022/01/29 06:48:49;;;;;;;;;34.00;31.25;12.70;99.90;;;;;;5072489;28;11699;-43
2022/01/29 06:51:19;;;;;;;;;33.50;31.00;12.70;99.90;;;;;;5087699;28;11670;-46
2022/01/29 06:53:49;;;;;;;;;27.75;27.75;12.70;99.90;;;;;;5081044;28;11548;-47
2022/01/29 06:56:21;;;;;;;;;28.75;27.50;12.60;99.90;;;;;;5079314;28;11529;-49
2022/01/29 06:58:53;;;;;;;;;26.25;26.25;12.60;99.90;;;;;;5082249;28;11501;-46
2022/01/29 07:01:41;;;;;;;;;27.50;27.50;12.60;99.90;;;;;;5080459;28;11562;-46
2022/01/29 07:04:11;;;;;;;;;30.25;30.25;12.50;99.90;;;;;;5071332;28;12371;-45
2022/01/29 07:06:41;;;;;;;;;32.75;31.75;12.60;99.90;;;;;;5079544;28;11517;-47
2022/01/29 07:09:12;;;;;;;;;24.25;24.25;12.50;99.90;;;;;;5072915;28;11545;-46
2022/01/29 07:11:46;;;;;;;;;30.75;30.00;12.50;99.90;;;;;;5083559;28;11519;-48
2022/01/29 07:14:18;;;;;;;;;30.50;30.50;12.40;99.90;;;;;;5074416;28;11571;-45
2022/01/29 07:16:48;;;;;;;;;33.50;32.25;12.30;99.90;;;;;;5073960;28;11540;-47
2022/01/29 07:19:18;;;;;;;;;33.00;33.00;12.30;99.90;;;;;;5074427;28;11703;-47
2022/01/29 07:21:49;;;;;;;;;26.25;26.25;12.30;99.90;;;;;;5072820;28;11642;-44
2022/01/29 07:24:20;;;;;;;;;19.67;19.67;12.30;99.90;;;;;;5078066;28;11490;-43
2022/01/29 07:26:50;;;;;;;;;28.00;26.67;12.30;99.90;;;;;;5066553;28;11561;-44
2022/01/29 07:29:20;;;;;;;;;23.33;22.00;12.20;99.90;;;;;;5075799;28;11533;-43
2022/01/29 07:31:51;;;;;;;;;34.67;34.00;12.20;99.90;;;;;;5067093;28;10175;-44
2022/01/29 07:34:23;;;;;;;;;38.67;35.67;12.20;99.90;;;;;;5073013;28;8830;-46
2022/01/29 07:36:55;;;;;;;;;40.67;37.33;12.20;99.90;;;;;;5074181;28;8844;-45
2022/01/29 07:39:26;;;;;;;;;43.00;38.67;12.10;99.90;;;;;;5073241;28;8829;-49
2022/01/29 07:41:59;;;;;;;;;41.33;37.33;12.10;99.90;;;;;;5076119;28;8839;-49
2022/01/29 07:44:30;;;;;;;;;47.00;41.67;12.00;99.90;;;;;;5056091;28;9018;-47
2022/01/29 07:47:01;;;;;;;;;44.00;38.33;12.00;99.90;;;;;;5077124;28;8852;-48
2022/01/29 07:49:32;;;;;;;;;40.67;37.33;11.90;99.90;;;;;;5074222;28;8832;-48
2022/01/29 07:52:03;;;;;;;;;42.00;36.00;12.00;99.90;;;;;;5076882;28;8965;-48
2022/01/29 07:54:33;;;;;;;;;37.33;34.33;11.90;99.90;;;;;;5072847;28;8890;-49
2022/01/29 07:57:05;;;;;;;;;35.67;33.00;11.90;99.90;;;;;;5076486;28;8954;-48
2022/01/29 07:59:35;;;;;;;;;43.33;38.67;11.90;99.90;;;;;;5076995;28;8869;-44
2022/01/29 08:02:06;;;;;;;;;39.67;36.00;11.90;99.90;;;;;;5075484;28;8863;-46
2022/01/29 08:04:37;;;;;;;;;34.33;31.33;11.90;99.90;;;;;;5077849;28;8884;-46
2022/01/29 08:07:08;;;;;;;;;36.00;33.67;11.90;99.90;;;;;;5083820;28;8864;-47
2022/01/29 08:09:39;;;;;;;;;39.00;36.00;11.90;99.90;;;;;;5072438;28;8845;-45
2022/01/29 08:12:11;;;;;;;;;40.33;36.67;11.90;99.90;;;;;;5082729;28;9630;-47
2022/01/29 08:14:42;;;;;;;;;40.00;36.67;11.80;99.90;;;;;;5073707;28;8865;-47
2022/01/29 08:17:13;;;;;;;;;37.00;35.00;11.80;99.90;;;;;;5080902;28;8817;-46
2022/01/29 08:19:44;;;;;;;;;42.67;39.00;11.80;99.90;;;;;;5083071;28;8843;-45
2022/01/29 08:22:14;;;;;;;;;38.00;35.67;11.80;99.90;;;;;;5076922;28;8854;-48
2022/01/29 08:24:44;;;;;;;;;39.33;36.67;11.80;99.90;;;;;;5067907;28;8838;-48
2022/01/29 08:27:15;;;;;;;;;32.00;32.00;11.80;99.90;;;;;;5074268;28;8810;-45
2022/01/29 08:29:47;;;;;;;;;11.67;11.67;11.70;99.90;;;;;;5073097;28;8857;-48
2022/01/29 08:32:17;;;;;;;;;34.33;33.33;11.70;99.90;;;;;;5078588;28;8827;-48
2022/01/29 08:34:47;;;;;;;;;33.67;33.00;11.70;99.90;;;;;;5083796;28;9033;-46
2022/01/29 08:37:18;;;;;;;;;34.00;33.33;11.70;99.90;;;;;;5075823;28;11509;-46
2022/01/29 08:39:49;;;;;;;;;33.33;31.67;11.60;99.90;;;;;;5077653;28;12325;-44
2022/01/29 08:42:19;;;;;;;;;33.33;32.67;11.60;99.90;;;;;;5058439;28;11549;-45
2022/01/29 08:44:50;;;;;;;;;33.00;32.00;11.60;99.90;;;;;;5072774;28;8969;-44
2022/01/29 08:47:20;;;;;;;;;31.00;31.00;11.60;99.90;;;;;;5081984;28;12239;-46
2022/01/29 08:49:50;;;;;;;;;36.67;33.67;11.50;99.90;;;;;;5062487;28;11500;-47
2022/01/29 08:52:21;;;;;;;;;30.25;29.50;11.50;99.90;;;;;;5079125;28;11538;-50
2022/01/29 08:54:51;;;;;;;;;34.00;32.25;11.50;99.90;;;;;;5076641;28;11530;-44
2022/01/29 08:57:24;;;;;;;;;31.50;31.50;11.50;99.90;;;;;;5074965;28;11710;-46
2022/01/29 08:59:56;;;;;;;;;32.00;31.75;11.50;99.90;;;;;;5082523;28;11526;-47
2022/01/29 09:02:29;;;;;;;;;33.50;33.00;11.40;99.90;;;;;;5072860;28;11521;-46
2022/01/29 09:05:02;;;;;;;;;30.00;30.00;11.30;99.90;;;;;;5080967;28;11551;-46
2022/01/29 09:07:33;;;;;;;;;35.67;34.67;11.20;99.90;;;;;;5080181;28;12205;-48
2022/01/29 09:10:04;;;;;;;;;40.00;35.25;11.20;99.90;;;;;;5074171;28;11557;-46
2022/01/29 09:12:35;;;;;;;;;33.00;32.00;11.10;99.90;;;;;;5082024;28;11518;-48
2022/01/29 09:15:07;;;;;;;;;38.75;34.75;11.20;99.90;;;;;;5080605;28;11547;-46
2022/01/29 09:17:39;;;;;;;;;30.75;30.75;11.20;99.90;;;;;;5071870;28;12263;-49
2022/01/29 09:20:11;;;;;;;;;37.00;34.00;11.20;99.90;;;;;;5071072;28;11492;-45
2022/01/29 09:22:42;;;;;;;;;34.50;33.75;11.20;99.90;;;;;;5075464;28;11541;-44
2022/01/29 09:25:13;;;;;;;;;32.75;32.25;11.10;99.90;;;;;;5076564;28;11561;-46
2022/01/29 09:27:43;;;;;;;;;30.25;30.25;11.10;99.90;;;;;;5073430;28;11577;-48
2022/01/29 09:30:14;;;;;;;;;31.00;31.00;11.00;99.90;;;;;;5080620;28;11671;-47
2022/01/29 09:32:51;;;;;;;;;31.50;31.50;11.10;99.90;;;;;;5079470;28;11534;-44
2022/01/29 09:35:22;;;;;;;;;26.50;26.00;11.10;99.90;;;;;;5072025;28;12279;-45
2022/01/29 09:37:54;;;;;;;;;30.25;30.25;11.10;99.90;;;;;;5083810;28;11529;-44
2022/01/29 09:40:25;;;;;;;;;31.00;31.00;11.00;99.90;;;;;;5075527;28;11472;-44
2022/01/29 09:42:58;;;;;;;;;23.75;23.75;10.90;99.90;;;;;;5074021;28;11703;-44
2022/01/29 09:45:28;;;;;;;;;35.75;32.50;10.90;99.90;;;;;;5078426;28;11538;-46
2022/01/29 09:48:02;;;;;;;;;30.00;30.00;10.80;99.90;;;;;;5058851;28;11531;-45
2022/01/29 09:50:38;;;;;;;;;35.00;32.75;10.80;99.90;;;;;;5084725;28;11517;-45
2022/01/29 09:53:08;;;;;;;;;30.00;30.00;10.80;99.90;;;;;;5070237;28;12381;-44
2022/01/29 09:55:42;;;;;;;;;28.75;28.75;10.90;99.90;;;;;;5075627;28;11582;-47
2022/01/29 09:58:13;;;;;;;;;31.25;31.25;10.90;99.90;;;;;;5077039;28;11890;-45
2022/01/29 10:00:44;;;;;;;;;31.33;30.67;10.90;99.90;;;;;;5080385;28;11505;-48
2022/01/29 10:03:19;;;;;;;;;27.67;27.33;10.80;99.90;;;;;;5079264;28;11546;-46
2022/01/29 10:05:54;;;;;;;;;31.75;31.50;10.80;99.90;;;;;;5074688;28;11665;-46
2022/01/29 10:08:24;;;;;;;;;31.75;30.50;10.80;99.90;;;;;;5053174;28;11574;-50
2022/01/29 10:11:02;;;;;;;;;30.00;30.00;10.80;99.90;;;;;;5068997;28;11561;-47
2022/01/29 10:13:34;;;;;;;;;29.25;27.75;10.80;99.90;;;;;;5081245;28;11534;-49
2022/01/29 10:16:21;;;;;;;;;29.25;29.25;10.80;99.90;;;;;;5081926;28;12227;-46
2022/01/29 10:19:08;;;;;;;;;31.00;29.75;10.70;99.90;;;;;;5079443;28;11501;-48
2022/01/29 10:21:46;;;;;;;;;24.50;24.50;10.60;99.90;;;;;;5081847;28;11602;-45
2022/01/29 10:24:19;;;;;;;;;27.50;27.50;10.60;99.90;;;;;;5073576;28;11494;-46
2022/01/29 10:26:53;;;;;;;;;29.50;29.50;10.60;99.90;;;;;;5070284;28;11547;-45
2022/01/29 10:29:26;;;;;;;;;29.50;29.50;10.60;99.90;;;;;;5065345;28;11528;-45
2022/01/29 10:32:00;;;;;;;;;28.00;28.00;10.60;99.90;;;;;;5076516;28;11534;-45
2022/01/29 10:34:35;;;;;;;;;22.25;22.25;10.60;99.90;;;;;;5061469;28;11544;-46
2022/01/29 10:37:20;;;;;;;;;26.25;26.25;10.60;99.90;;;;;;5072787;28;11606;-49
2022/01/29 10:39:52;;;;;;;;;24.25;24.25;10.60;99.90;;;;;;5083608;28;11502;-49
2022/01/29 10:42:26;;;;;;;;;24.25;23.75;10.50;99.90;;;;;;5078117;28;11662;-48
2022/01/29 10:44:59;;;;;;;;;15.75;15.75;10.50;99.90;;;;;;5085189;28;11538;-44
2022/01/29 10:47:58;;;;;;;;;21.00;21.00;10.50;99.90;;;;;;5082944;28;11629;-46
2022/01/29 10:50:28;;;;;;;;;26.25;26.25;10.40;99.90;;;;;;5074464;28;11502;-47
2022/01/29 10:53:29;;;;;;;;;26.75;25.75;10.40;99.90;;;;;;5058765;28;11518;-45
2022/01/29 10:56:01;;;;;;;;;22.00;21.75;10.40;99.90;;;;;;5078341;28;11519;-48
2022/01/29 10:58:40;;;;;;;;;28.25;28.00;10.30;99.90;;;;;;5078765;28;11532;-46
2022/01/29 11:01:15;;;;;;;;;24.25;24.25;10.20;99.90;;;;;;5075452;28;12329;-46
2022/01/29 11:03:47;;;;;;;;;23.25;23.25;10.20;99.90;;;;;;5083316;28;11521;-45
2022/01/29 11:06:19;;;;;;;;;20.00;20.00;10.20;99.90;;;;;;5074020;28;11571;-46
2022/01/29 11:08:49;;;;;;;;;25.25;25.25;10.20;99.90;;;;;;5070679;28;11535;-45
2022/01/29 11:11:20;;;;;;;;;21.50;21.50;10.20;99.90;;;;;;5074376;28;12222;-45
2022/01/29 11:14:13;;;;;;;;;25.50;25.50;10.20;99.90;;;;;;5077327;28;11465;-46
2022/01/29 11:16:44;;;;;;;;;30.33;27.33;10.20;99.90;;;;;;5075429;28;11663;-48
2022/01/29 11:19:16;;;;;;;;;20.33;20.33;10.20;99.90;;;;;;5063665;28;11494;-45
2022/01/29 11:21:51;;;;;;;;;29.33;29.33;10.20;99.90;;;;;;5074854;28;11511;-47
2022/01/29 11:24:25;;;;;;;;;23.00;23.00;10.20;99.90;;;;;;5079177;28;11558;-47
2022/01/29 11:26:56;;;;;;;;;25.00;25.00;10.20;99.90;;;;;;5077308;28;11541;-48
2022/01/29 11:29:34;;;;;;;;;25.50;25.50;10.20;99.90;;;;;;5080988;28;11545;-48
2022/01/29 11:32:23;;;;;;;;;26.00;25.50;10.20;99.90;;;;;;5073736;28;11551;-45
2022/01/29 11:35:00;;;;;;;;;29.25;29.25;10.20;99.90;;;;;;5066272;28;11570;-45
2022/01/29 11:37:44;;;;;;;;;25.67;25.67;10.20;99.90;;;;;;5080205;28;12363;-47
2022/01/29 11:40:27;;;;;;;;;28.00;26.25;10.20;99.90;;;;;;5070191;28;11588;-48
2022/01/29 11:43:16;;;;;;;;;26.67;26.67;10.20;99.90;;;;;;5078665;28;12333;-46
2022/01/29 11:46:30;;;;;;;;;28.00;28.00;10.20;99.90;;;;;;5074998;28;11658;-47
2022/01/29 11:49:18;;;;;;;;;23.25;23.25;10.20;99.90;;;;;;5056166;28;11556;-46
2022/01/29 11:51:51;;;;;;;;;28.25;28.25;10.20;99.90;;;;;;5077567;28;12248;-44
2022/01/29 11:54:28;;;;;;;;;27.50;25.75;10.20;99.90;;;;;;5079786;28;11540;-46
2022/01/29 11:57:12;;;;;;;;;24.75;24.75;10.20;99.90;;;;;;5087206;28;12293;-45
2022/01/29 11:59:43;;;;;;;;;28.25;28.25;10.20;99.90;;;;;;5088485;28;11670;-45
2022/01/29 12:02:15;;;;;;;;;24.50;24.50;10.20;99.90;;;;;;5071170;28;11547;-44
2022/01/29 12:04:50;;;;;;;;;25.00;25.00;10.10;99.90;;;;;;5079502;28;11624;-43
2022/01/29 12:07:29;;;;;;;;;28.50;27.50;10.10;99.90;;;;;;5073429;28;11539;-47
2022/01/29 12:10:05;;;;;;;;;28.00;28.00;10.10;99.90;;;;;;5065642;28;11863;-46
2022/01/29 12:12:40;;;;;;;;;22.00;22.00;10.10;99.90;;;;;;5077929;28;11614;-45
2022/01/29 12:15:10;;;;;;;;;24.00;24.00;10.10;99.90;;;;;;5083245;28;11500;-45
2022/01/29 12:17:45;;;;;;;;;24.75;24.75;10.10;99.90;;;;;;5080578;28;12148;-45
2022/01/29 12:20:21;;;;;;;;;28.00;28.00;10.10;99.90;;;;;;5081796;28;11532;-45
2022/01/29 12:22:57;;;;;;;;;24.00;23.50;10.10;99.90;;;;;;5079406;28;12276;-43
2022/01/29 12:25:29;;;;;;;;;26.50;25.75;10.10;99.90;;;;;;5082049;28;11509;-47
2022/01/29 12:28:07;;;;;;;;;23.50;23.50;10.00;99.90;;;;;;5077408;28;11535;-48
2022/01/29 12:30:43;;;;;;;;;25.00;25.00;10.00;99.90;;;;;;5086936;28;11546;-46
2022/01/29 12:33:17;;;;;;;;;29.00;27.25;10.00;99.90;;;;;;5080789;28;11542;-48
2022/01/29 12:35:58;;;;;;;;;23.00;23.00;10.00;99.90;;;;;;5073806;28;12292;-48
2022/01/29 12:38:37;;;;;;;;;22.50;21.75;10.00;99.90;;;;;;5071800;28;11687;-46
2022/01/29 12:41:13;;;;;;;;;20.00;20.00;10.00;99.90;;;;;;5068416;28;12277;-46
2022/01/29 12:44:02;;;;;;;;;24.25;24.25;10.00;99.90;;;;;;5068297;28;11675;-45
2022/01/29 12:46:32;;;;;;;;;23.00;23.00;10.00;99.90;;;;;;5075444;28;11473;-56
2022/01/29 12:49:12;;;;;;;;;22.25;22.25;9.90;99.90;;;;;;5083608;28;11565;-45
2022/01/29 12:51:58;;;;;;;;;27.25;25.75;9.90;99.90;;;;;;5075405;28;11700;-44
2022/01/29 12:54:31;;;;;;;;;20.25;20.25;9.80;99.90;;;;;;5076242;28;11519;-46
2022/01/29 12:57:04;;;;;;;;;21.00;21.00;9.90;99.90;;;;;;5064384;28;11550;-45
2022/01/29 12:59:35;;;;;;;;;24.50;22.25;9.90;99.90;;;;;;5073260;28;12297;-45
2022/01/29 13:02:22;;;;;;;;;21.75;21.75;9.80;99.90;;;;;;5084072;28;11606;-47
2022/01/29 13:04:52;;;;;;;;;26.00;24.25;9.80;99.90;;;;;;5077611;28;11701;-49
2022/01/29 13:07:23;;;;;;;;;18.50;18.50;9.80;99.90;;;;;;5080914;28;11523;-48